Lehigh, Iowa
Current Conditions -  °F | °C
As of 8:35 AM on Friday 31 Oct 2014 (Local Time) from KEBS Reporting Station
Clear Clear  
Wind Chill: 16°   Ceiling: Unl
Heat Index: 27°   Visibility: 10mi
Dew Point: 19°   Wind: 12mph
Humidity: 74%   Direction: 330°NNW
Pressure: 30.47"   Gusts: NA
Location:  42.36°N, 94.05°W
Report Text: KEBS 311335Z AUTO 33010KT 10SM CLR M03/M07 A3047 RMK AO2
Loading
Personal Weather Stations






























Interactive Weather Map
Tropical Storm Tracking
New forecast layout! Learn more

10-Day Weather Forecast

Advertisements
Track Severe Weather on mobile